createdAt,value
2023-05-02T00:00:28.212Z,93.55
2023-05-02T00:01:28.180Z,94.07
2023-05-02T00:02:28.309Z,93.96
2023-05-02T00:03:28.261Z,93.86
2023-05-02T00:04:28.194Z,93.45
2023-05-02T00:05:28.157Z,94.37
2023-05-02T00:06:28.303Z,93.92
2023-05-02T00:07:28.140Z,92.90
2023-05-02T00:08:28.139Z,92.59
2023-05-02T00:09:28.117Z,92.14
2023-05-02T00:10:28.148Z,91.63
2023-05-02T00:11:28.107Z,92.34
2023-05-02T00:12:28.105Z,92.14
2023-05-02T00:13:28.079Z,91.93
2023-05-02T00:14:28.123Z,92.34
2023-05-02T00:15:28.192Z,92.65
2023-05-02T00:16:28.108Z,92.38
2023-05-02T00:17:28.111Z,92.59
2023-05-02T00:18:28.059Z,92.59
2023-05-02T00:19:28.071Z,92.28
2023-05-02T00:20:28.062Z,92.79
2023-05-02T00:21:28.066Z,92.59
2023-05-02T00:22:28.031Z,93.55
2023-05-02T00:23:28.032Z,94.17
2023-05-02T00:24:28.075Z,93.92
2023-05-02T00:25:28.020Z,93.96
2023-05-02T00:26:28.002Z,94.02
2023-05-02T00:27:28.021Z,93.86
2023-05-02T00:28:27.998Z,94.02
2023-05-02T00:29:27.991Z,94.23
2023-05-02T00:30:27.999Z,93.30
2023-05-02T00:31:28.007Z,94.33
2023-05-02T00:32:27.982Z,93.71
2023-05-02T00:33:27.948Z,93.92
2023-05-02T00:34:27.989Z,93.47
2023-05-02T00:35:27.962Z,93.92
2023-05-02T00:36:27.929Z,93.82
2023-05-02T00:37:27.953Z,93.41
2023-05-02T00:38:27.952Z,93.62
2023-05-02T00:39:27.910Z,93.82
2023-05-02T00:40:27.947Z,93.62
2023-05-02T00:41:27.894Z,94.17
2023-05-02T00:42:27.944Z,94.07
2023-05-02T00:43:27.890Z,94.99
2023-05-02T00:44:27.970Z,94.89
2023-05-02T00:45:27.883Z,94.78
2023-05-02T00:46:27.966Z,94.68
2023-05-02T00:47:27.877Z,94.07
2023-05-02T00:48:27.974Z,94.12
2023-05-02T00:49:27.837Z,94.78
2023-05-02T00:50:27.872Z,94.17
2023-05-02T00:51:27.824Z,92.49
2023-05-02T00:52:27.829Z,92.49
2023-05-02T00:53:27.814Z,92.79
2023-05-02T00:54:27.838Z,92.44
2023-05-02T00:55:27.843Z,91.83
2023-05-02T00:56:27.790Z,91.93
2023-05-02T00:57:27.786Z,91.52
2023-05-02T00:58:27.782Z,91.17
2023-05-02T00:59:27.775Z,91.22
2023-05-02T01:00:28.382Z,91.93
2023-05-02T01:01:27.840Z,91.73
2023-05-02T01:02:27.869Z,91.27
2023-05-02T01:03:27.796Z,90.05
2023-05-02T01:04:27.815Z,90.36
2023-05-02T01:05:27.751Z,90.86
2023-05-02T01:06:27.774Z,91.07
2023-05-02T01:07:27.769Z,90.31
2023-05-02T01:08:27.760Z,91.27
2023-05-02T01:09:27.712Z,90.86
2023-05-02T01:10:27.723Z,91.69
2023-05-02T01:11:27.739Z,91.89
2023-05-02T01:12:27.686Z,92.50
2023-05-02T01:13:27.698Z,91.99
2023-05-02T01:14:27.678Z,91.48
2023-05-02T01:15:27.709Z,90.97
2023-05-02T01:16:27.737Z,91.07
2023-05-02T01:17:27.685Z,91.13
2023-05-02T01:18:27.680Z,90.41
2023-05-02T01:19:27.685Z,91.69
2023-05-02T01:20:27.659Z,91.07
2023-05-02T01:21:27.629Z,91.27
2023-05-02T01:22:27.664Z,91.17
2023-05-02T01:23:27.618Z,90.97
2023-05-02T01:24:27.620Z,91.17
2023-05-02T01:25:27.683Z,90.86
2023-05-02T01:26:27.586Z,90.97
2023-05-02T01:27:27.606Z,90.97
2023-05-02T01:28:27.571Z,91.38
2023-05-02T01:29:27.580Z,90.62
2023-05-02T01:30:27.600Z,91.27
2023-05-02T01:31:27.638Z,90.92
2023-05-02T01:32:27.568Z,91.33
2023-05-02T01:33:27.551Z,90.21
2023-05-02T01:34:27.540Z,90.52
2023-05-02T01:35:27.584Z,90.72
2023-05-02T01:36:27.538Z,91.23
2023-05-02T01:37:27.522Z,91.69
2023-05-02T01:38:27.518Z,91.17
2023-05-02T01:39:27.496Z,91.69
2023-05-02T01:40:28.511Z,91.58
2023-05-02T01:41:27.490Z,92.30
2023-05-02T01:42:27.496Z,91.48
2023-05-02T01:43:27.476Z,91.27
2023-05-02T01:44:27.472Z,90.97
2023-05-02T01:45:27.502Z,90.31
2023-05-02T01:46:27.480Z,90.41
2023-05-02T01:47:27.508Z,90.00
2023-05-02T01:48:27.453Z,91.54
2023-05-02T01:49:27.460Z,91.13
2023-05-02T01:50:27.491Z,90.92
2023-05-02T01:51:27.430Z,91.33
2023-05-02T01:52:27.430Z,90.86
2023-05-02T01:53:27.417Z,91.78
2023-05-02T01:54:27.394Z,92.75
2023-05-02T01:55:27.433Z,94.02
2023-05-02T01:56:27.387Z,93.77
2023-05-02T01:57:27.382Z,94.18
2023-05-02T01:58:27.416Z,92.30
2023-05-02T01:59:27.465Z,92.50
2023-05-02T02:00:27.390Z,92.40
2023-05-02T02:01:27.426Z,91.33
2023-05-02T02:02:27.350Z,91.33
2023-05-02T02:03:27.365Z,91.89
2023-05-02T02:04:27.392Z,91.99
2023-05-02T02:05:27.351Z,91.78
2023-05-02T02:06:27.343Z,92.15
2023-05-02T02:07:27.327Z,91.33
2023-05-02T02:08:27.316Z,90.92
2023-05-02T02:09:27.294Z,90.92
2023-05-02T02:10:27.314Z,90.82
2023-05-02T02:11:27.283Z,91.27
2023-05-02T02:12:27.278Z,92.50
2023-05-02T02:13:27.271Z,92.30
2023-05-02T02:14:27.263Z,92.10
2023-05-02T02:15:27.269Z,93.22
2023-05-02T02:16:27.313Z,92.50
2023-05-02T02:17:27.349Z,92.40
2023-05-02T02:18:27.236Z,92.10
2023-05-02T02:19:27.225Z,92.55
2023-05-02T02:20:27.234Z,91.89
2023-05-02T02:21:27.220Z,92.10
2023-05-02T02:22:27.198Z,91.89
2023-05-02T02:23:27.196Z,91.99
2023-05-02T02:24:27.204Z,91.89
2023-05-02T02:25:27.211Z,91.99
2023-05-02T02:26:27.186Z,91.89
2023-05-02T02:27:27.171Z,92.30
2023-05-02T02:28:27.175Z,92.30
2023-05-02T02:29:27.157Z,92.85
2023-05-02T02:30:27.173Z,92.75
2023-05-02T02:31:27.202Z,92.44
2023-05-02T02:32:27.136Z,92.60
2023-05-02T02:33:27.128Z,93.67
2023-05-02T02:34:27.127Z,94.18
2023-05-02T02:35:27.121Z,94.74
2023-05-02T02:36:27.152Z,94.59
2023-05-02T02:37:27.100Z,94.12
2023-05-02T02:38:27.101Z,94.39
2023-05-02T02:39:27.112Z,94.74
2023-05-02T02:40:27.111Z,94.95
2023-05-02T02:41:27.072Z,95.05
2023-05-02T02:42:27.073Z,95.25
2023-05-02T02:43:27.074Z,93.77
2023-05-02T02:44:27.061Z,93.98
2023-05-02T02:45:27.109Z,93.43
2023-05-02T02:46:27.169Z,93.59
2023-05-02T02:47:27.033Z,92.50
2023-05-02T02:48:27.011Z,93.67
2023-05-02T02:49:27.023Z,95.51
2023-05-02T02:50:27.038Z,95.56
2023-05-02T02:51:27.003Z,95.56
2023-05-02T02:52:27.062Z,94.08
2023-05-02T02:53:26.992Z,93.57
2023-05-02T02:54:27.634Z,93.73
2023-05-02T02:55:27.010Z,93.63
2023-05-02T02:56:26.973Z,93.52
2023-05-02T02:57:26.960Z,92.91
2023-05-02T02:58:26.962Z,92.81
2023-05-02T02:59:26.961Z,92.40
2023-05-02T03:00:26.950Z,92.96
2023-05-02T03:01:26.995Z,93.43
2023-05-02T03:02:26.995Z,92.40
2023-05-02T03:03:26.988Z,92.81
2023-05-02T03:04:26.903Z,92.40
2023-05-02T03:05:26.922Z,92.30
2023-05-02T03:06:26.974Z,92.60
2023-05-02T03:07:26.918Z,92.25
2023-05-02T03:08:26.891Z,91.74
2023-05-02T03:09:26.894Z,91.85
2023-05-02T03:10:27.120Z,92.05
2023-05-02T03:11:27.715Z,92.36
2023-05-02T03:12:26.856Z,91.64
2023-05-02T03:13:26.862Z,90.82
2023-05-02T03:14:26.846Z,92.05
2023-05-02T03:15:26.890Z,92.19
2023-05-02T03:16:26.901Z,94.18
2023-05-02T03:17:26.825Z,93.67
2023-05-02T03:18:26.814Z,93.37
2023-05-02T03:19:26.811Z,92.96
2023-05-02T03:20:26.849Z,93.93
2023-05-02T03:21:26.797Z,92.05
2023-05-02T03:22:26.790Z,92.71
2023-05-02T03:23:26.772Z,94.04
2023-05-02T03:24:26.776Z,93.52
2023-05-02T03:25:26.782Z,93.52
2023-05-02T03:26:26.757Z,92.85
2023-05-02T03:27:26.755Z,93.32
2023-05-02T03:28:26.749Z,93.67
2023-05-02T03:29:26.805Z,94.04
2023-05-02T03:30:26.741Z,93.98
2023-05-02T03:31:27.001Z,94.04
2023-05-02T03:32:26.749Z,94.14
2023-05-02T03:33:26.725Z,93.73
2023-05-02T03:34:26.703Z,94.70
2023-05-02T03:35:26.698Z,93.98
2023-05-02T03:36:26.724Z,91.99
2023-05-02T03:37:26.674Z,91.03
2023-05-02T03:38:26.678Z,91.54
2023-05-02T03:39:26.666Z,90.82
2023-05-02T03:40:26.651Z,90.06
2023-05-02T03:41:26.678Z,90.58
2023-05-02T03:42:26.639Z,90.47
2023-05-02T03:43:26.669Z,90.17
2023-05-02T03:44:26.639Z,90.37
2023-05-02T03:45:26.636Z,90.17
2023-05-02T03:46:26.678Z,89.72
2023-05-02T03:47:26.630Z,89.92
2023-05-02T03:48:26.603Z,89.20
2023-05-02T03:49:26.640Z,89.11
2023-05-02T03:50:26.639Z,88.76
2023-05-02T03:51:26.605Z,88.45
2023-05-02T03:52:26.586Z,88.76
2023-05-02T03:53:26.576Z,88.59
2023-05-02T03:54:26.558Z,87.84
2023-05-02T03:55:26.547Z,88.76
2023-05-02T03:56:26.658Z,89.37
2023-05-02T03:57:26.540Z,87.84
2023-05-02T03:58:26.535Z,88.85
2023-05-02T03:59:26.526Z,87.12
2023-05-02T04:00:26.522Z,87.12
2023-05-02T04:01:26.533Z,87.73
2023-05-02T04:02:26.565Z,88.10
2023-05-02T04:03:28.587Z,87.53
2023-05-02T04:04:26.517Z,88.76
2023-05-02T04:05:27.416Z,87.49
2023-05-02T04:06:27.464Z,87.53
2023-05-02T04:07:26.599Z,87.29
2023-05-02T04:08:26.553Z,87.43
2023-05-02T04:09:26.499Z,87.08
2023-05-02T04:10:27.332Z,86.36
2023-05-02T04:11:26.792Z,86.88
2023-05-02T04:12:26.474Z,86.83
2023-05-02T04:13:27.284Z,86.16
2023-05-02T04:14:26.498Z,86.33
2023-05-02T04:15:27.279Z,86.83
2023-05-02T04:16:26.450Z,85.92
2023-05-02T04:17:26.454Z,86.12
2023-05-02T04:18:27.926Z,86.83
2023-05-02T04:19:26.509Z,86.88
2023-05-02T04:20:26.385Z,86.94
2023-05-02T04:21:26.417Z,87.59
2023-05-02T04:22:26.417Z,87.38
2023-05-02T04:23:26.400Z,88.82
2023-05-02T04:24:26.365Z,88.82
2023-05-02T04:25:26.372Z,88.31
2023-05-02T04:26:26.509Z,87.38
2023-05-02T04:27:26.328Z,87.49
2023-05-02T04:28:26.329Z,87.45
2023-05-02T04:29:26.313Z,86.94
2023-05-02T04:30:26.301Z,86.83
2023-05-02T04:31:26.506Z,86.73
2023-05-02T04:32:26.363Z,87.35
2023-05-02T04:33:26.279Z,89.32
2023-05-02T04:34:26.279Z,89.18
2023-05-02T04:35:26.266Z,88.85
2023-05-02T04:36:26.274Z,89.12
2023-05-02T04:37:26.287Z,89.94
2023-05-02T04:38:26.245Z,89.32
2023-05-02T04:39:26.404Z,89.43
2023-05-02T04:40:26.385Z,89.63
2023-05-02T04:41:26.322Z,88.92
2023-05-02T04:42:26.274Z,87.79
2023-05-02T04:43:27.264Z,87.49
2023-05-02T04:44:26.296Z,88.06
2023-05-02T04:45:26.777Z,88.51
2023-05-02T04:46:26.469Z,89.23
2023-05-02T04:47:27.276Z,89.23
2023-05-02T04:48:27.150Z,89.84
2023-05-02T04:49:26.300Z,89.67
2023-05-02T04:50:26.359Z,89.53
2023-05-02T04:51:26.827Z,90.35
2023-05-02T04:52:26.849Z,90.55
2023-05-02T04:53:26.244Z,89.43
2023-05-02T04:54:26.166Z,89.02
2023-05-02T04:55:26.321Z,88.71
2023-05-02T04:56:26.139Z,88.17
2023-05-02T04:57:26.105Z,87.55
2023-05-02T04:58:26.109Z,87.14
2023-05-02T04:59:26.248Z,86.83
2023-05-02T05:00:26.091Z,87.24
2023-05-02T05:01:26.109Z,86.08
2023-05-02T05:02:26.194Z,86.22
2023-05-02T05:03:26.976Z,86.08
2023-05-02T05:04:26.069Z,85.16
2023-05-02T05:05:26.061Z,85.77
2023-05-02T05:06:26.802Z,85.57
2023-05-02T05:07:26.052Z,85.57
2023-05-02T05:08:26.077Z,85.06
2023-05-02T05:09:26.016Z,84.86
2023-05-02T05:10:26.777Z,85.06
2023-05-02T05:11:26.784Z,85.57
2023-05-02T05:12:26.124Z,85.33
2023-05-02T05:13:26.078Z,85.43
2023-05-02T05:14:26.032Z,85.43
2023-05-02T05:15:26.778Z,85.33
2023-05-02T05:16:26.917Z,85.53
2023-05-02T05:17:26.058Z,84.92
2023-05-02T05:18:25.985Z,84.82
2023-05-02T05:19:26.158Z,84.61
2023-05-02T05:20:26.057Z,84.31
2023-05-02T05:21:26.018Z,84.72
2023-05-02T05:22:25.960Z,84.72
2023-05-02T05:23:26.019Z,84.31
2023-05-02T05:24:26.101Z,84.27
2023-05-02T05:25:25.991Z,84.67
2023-05-02T05:26:26.100Z,84.78
2023-05-02T05:27:26.867Z,84.58
2023-05-02T05:28:26.038Z,84.17
2023-05-02T05:29:26.035Z,83.56
2023-05-02T05:30:26.008Z,83.11
2023-05-02T05:31:26.003Z,84.12
2023-05-02T05:32:26.469Z,83.96
2023-05-02T05:33:26.027Z,84.47
2023-05-02T05:34:25.872Z,84.53
2023-05-02T05:35:26.011Z,82.70
2023-05-02T05:36:25.982Z,83.21
2023-05-02T05:37:26.046Z,83.25
2023-05-02T05:38:25.832Z,85.28
2023-05-02T05:39:25.873Z,85.53
2023-05-02T05:40:25.861Z,84.31
2023-05-02T05:41:25.872Z,83.09
2023-05-02T05:42:25.994Z,84.00
2023-05-02T05:43:25.840Z,83.39
2023-05-02T05:44:25.916Z,81.86
2023-05-02T05:45:25.967Z,81.96
2023-05-02T05:46:25.883Z,81.76
2023-05-02T05:47:25.982Z,81.86
2023-05-02T05:48:25.848Z,81.96
2023-05-02T05:49:25.840Z,82.74
2023-05-02T05:50:25.826Z,82.27
2023-05-02T05:51:25.781Z,81.96
2023-05-02T05:52:26.042Z,82.27
2023-05-02T05:53:25.833Z,82.07
2023-05-02T05:54:26.174Z,82.17
2023-05-02T05:55:25.761Z,81.25
2023-05-02T05:56:25.884Z,81.04
2023-05-02T05:57:25.727Z,80.43
2023-05-02T05:58:25.704Z,81.25
2023-05-02T05:59:25.979Z,81.25
2023-05-02T06:00:25.679Z,81.25
2023-05-02T06:01:25.662Z,81.35
2023-05-02T06:02:25.823Z,81.15
2023-05-02T06:03:25.821Z,80.94
2023-05-02T06:04:25.683Z,81.35
2023-05-02T06:05:25.646Z,82.07
2023-05-02T06:06:25.677Z,81.35
2023-05-02T06:07:25.686Z,80.64
2023-05-02T06:08:25.656Z,80.74
2023-05-02T06:09:25.628Z,81.04
2023-05-02T06:10:25.614Z,81.15
2023-05-02T06:11:25.891Z,81.45
2023-05-02T06:12:25.662Z,81.35
2023-05-02T06:13:25.590Z,81.41
2023-05-02T06:14:25.587Z,81.35
2023-05-02T06:15:25.570Z,81.01
2023-05-02T06:16:25.610Z,80.84
2023-05-02T06:17:26.403Z,81.76
2023-05-02T06:18:25.668Z,82.07
2023-05-02T06:19:25.707Z,82.17
2023-05-02T06:20:25.722Z,81.93
2023-05-02T06:21:25.589Z,81.62
2023-05-02T06:22:25.604Z,80.70
2023-05-02T06:23:25.760Z,81.31
2023-05-02T06:24:25.720Z,81.11
2023-05-02T06:25:25.564Z,81.07
2023-05-02T06:26:26.032Z,80.32
2023-05-02T06:27:25.697Z,80.36
2023-05-02T06:28:25.606Z,81.88
2023-05-02T06:29:25.770Z,79.95
2023-05-02T06:30:25.533Z,79.81
2023-05-02T06:31:25.568Z,79.27
2023-05-02T06:32:25.836Z,78.35
2023-05-02T06:33:25.574Z,78.11
2023-05-02T06:34:25.575Z,77.29
2023-05-02T06:35:26.459Z,77.20
2023-05-02T06:36:25.433Z,76.95
2023-05-02T06:37:25.868Z,77.36
2023-05-02T06:38:25.564Z,76.55
2023-05-02T06:39:25.536Z,76.14
2023-05-02T06:40:25.467Z,76.61
2023-05-02T06:41:25.431Z,76.10
2023-05-02T06:42:25.531Z,74.68
2023-05-02T06:43:25.485Z,74.28
2023-05-02T06:44:25.441Z,76.37
2023-05-02T06:45:25.387Z,75.29
2023-05-02T06:46:25.421Z,74.34
2023-05-02T06:47:25.426Z,73.57
2023-05-02T06:48:25.420Z,74.21
2023-05-02T06:49:25.363Z,74.92
2023-05-02T06:50:25.521Z,75.26
2023-05-02T06:51:25.345Z,76.15
2023-05-02T06:52:25.353Z,77.20
2023-05-02T06:53:25.508Z,78.93
2023-05-02T06:54:25.342Z,79.14
2023-05-02T06:55:25.350Z,79.30
2023-05-02T06:56:25.275Z,79.16
2023-05-02T06:57:25.272Z,78.55
2023-05-02T06:58:25.510Z,77.09
2023-05-02T06:59:25.422Z,77.81
2023-05-02T07:00:25.246Z,77.36
2023-05-02T07:01:25.252Z,76.75
2023-05-02T07:02:25.267Z,76.25
2023-05-02T07:03:25.251Z,74.68
2023-05-02T07:04:26.169Z,75.26
2023-05-02T07:05:25.233Z,75.12
2023-05-02T07:06:25.275Z,73.36
2023-05-02T07:07:25.246Z,73.06
2023-05-02T07:08:25.213Z,72.78
2023-05-02T07:09:25.208Z,70.45
2023-05-02T07:10:25.258Z,70.01
2023-05-02T07:11:25.226Z,70.35
2023-05-02T07:12:25.182Z,72.17
2023-05-02T07:13:25.160Z,70.72
2023-05-02T07:14:25.154Z,70.42
2023-05-02T07:15:25.142Z,70.45
2023-05-02T07:16:25.181Z,71.70
2023-05-02T07:17:25.196Z,71.73
2023-05-02T07:18:25.180Z,71.16
2023-05-02T07:19:25.137Z,72.89
2023-05-02T07:20:25.165Z,72.62
2023-05-02T07:21:25.116Z,72.85
2023-05-02T07:22:25.120Z,73.94
2023-05-02T07:23:25.110Z,74.18
2023-05-02T07:24:25.088Z,73.87
2023-05-02T07:25:25.082Z,75.12
2023-05-02T07:26:25.079Z,75.94
2023-05-02T07:27:25.153Z,75.76
2023-05-02T07:28:25.082Z,74.71
2023-05-02T07:29:25.096Z,74.92
2023-05-02T07:30:25.045Z,74.62
2023-05-02T07:31:25.051Z,74.04
2023-05-02T07:32:25.304Z,75.09
2023-05-02T07:33:25.065Z,75.46
2023-05-02T07:34:25.017Z,77.29
2023-05-02T07:35:25.021Z,76.04
2023-05-02T07:36:25.042Z,75.16
2023-05-02T07:37:25.018Z,74.71
2023-05-02T07:38:25.003Z,74.07
2023-05-02T07:39:24.997Z,72.92
2023-05-02T07:40:24.979Z,72.68
2023-05-02T07:41:24.986Z,69.92
2023-05-02T07:42:24.989Z,70.01
2023-05-02T07:43:24.963Z,69.81
2023-05-02T07:44:24.949Z,74.17
2023-05-02T07:45:24.953Z,74.82
2023-05-02T07:46:24.982Z,75.23
2023-05-02T07:47:25.967Z,75.67
2023-05-02T07:48:27.041Z,75.63
2023-05-02T07:49:24.931Z,75.40
2023-05-02T07:50:24.920Z,74.10
2023-05-02T07:51:24.901Z,72.89
2023-05-02T07:52:24.933Z,72.17
2023-05-02T07:53:24.886Z,71.40
2023-05-02T07:54:24.884Z,68.97
2023-05-02T07:55:24.889Z,70.83
2023-05-02T07:56:24.870Z,69.88
2023-05-02T07:57:24.891Z,70.52
2023-05-02T07:58:24.860Z,70.32
2023-05-02T07:59:24.836Z,70.42
2023-05-02T08:00:24.839Z,70.52
2023-05-02T08:01:24.855Z,70.18
2023-05-02T08:02:24.981Z,69.98
2023-05-02T08:03:24.902Z,69.95
2023-05-02T08:04:25.033Z,68.43
2023-05-02T08:05:24.807Z,69.14
2023-05-02T08:06:24.832Z,68.10
2023-05-02T08:07:24.853Z,67.39
2023-05-02T08:08:24.840Z,67.35
2023-05-02T08:09:24.785Z,66.85
2023-05-02T08:10:24.796Z,67.52
2023-05-02T08:11:24.763Z,66.61
2023-05-02T08:12:24.793Z,66.18
2023-05-02T08:13:24.783Z,66.11
2023-05-02T08:14:24.732Z,67.60
2023-05-02T08:15:24.745Z,66.78
2023-05-02T08:16:24.761Z,66.35
2023-05-02T08:17:24.746Z,66.99
2023-05-02T08:18:24.798Z,65.81
2023-05-02T08:19:24.712Z,66.41
2023-05-02T08:20:24.698Z,67.43
2023-05-02T08:21:24.714Z,66.72
2023-05-02T08:22:24.733Z,67.19
2023-05-02T08:23:24.696Z,65.88
2023-05-02T08:24:24.674Z,65.37
2023-05-02T08:25:24.674Z,64.94
2023-05-02T08:26:24.665Z,65.75
2023-05-02T08:27:24.696Z,66.45
2023-05-02T08:28:24.713Z,65.64
2023-05-02T08:29:24.644Z,65.14
2023-05-02T08:30:24.631Z,64.70
2023-05-02T08:31:24.729Z,64.61
2023-05-02T08:32:24.719Z,64.61
2023-05-02T08:33:24.664Z,64.81
2023-05-02T08:34:24.590Z,65.08
2023-05-02T08:35:24.702Z,64.34
2023-05-02T08:36:24.638Z,64.54
2023-05-02T08:37:24.599Z,62.96
2023-05-02T08:38:24.646Z,64.44
2023-05-02T08:39:24.562Z,64.44
2023-05-02T08:40:34.074Z,63.64
2023-05-02T08:41:26.559Z,64.58
2023-05-02T08:42:24.736Z,63.06
2023-05-02T08:43:24.645Z,63.42
2023-05-02T08:44:24.521Z,65.81
2023-05-02T08:45:24.548Z,65.68
2023-05-02T08:46:24.635Z,62.73
2023-05-02T08:47:24.957Z,63.23
2023-05-02T08:48:24.508Z,63.73
2023-05-02T08:49:24.509Z,62.43
2023-05-02T08:50:24.504Z,62.96
2023-05-02T08:51:24.498Z,63.16
2023-05-02T08:52:24.473Z,64.24
2023-05-02T08:53:24.475Z,63.93
2023-05-02T08:54:24.464Z,61.49
2023-05-02T08:55:24.442Z,63.26
2023-05-02T08:56:24.444Z,63.87
2023-05-02T08:57:24.455Z,62.73
2023-05-02T08:58:24.528Z,63.23
2023-05-02T08:59:24.417Z,62.93
2023-05-02T09:00:24.406Z,62.15
2023-05-02T09:01:24.436Z,62.55
2023-05-02T09:02:24.432Z,63.16
2023-05-02T09:03:24.406Z,63.96
2023-05-02T09:04:24.445Z,63.06
2023-05-02T09:05:24.382Z,63.16
2023-05-02T09:06:24.399Z,63.56
2023-05-02T09:07:24.362Z,64.58
2023-05-02T09:08:24.368Z,63.22
2023-05-02T09:09:24.346Z,64.67
2023-05-02T09:10:24.332Z,64.67
2023-05-02T09:11:24.334Z,65.94
2023-05-02T09:12:25.325Z,67.11
2023-05-02T09:13:24.343Z,67.52
2023-05-02T09:14:24.298Z,67.99
2023-05-02T09:15:24.301Z,68.50
2023-05-02T09:16:24.364Z,68.53
2023-05-02T09:17:24.279Z,68.13
2023-05-02T09:18:24.364Z,68.26
2023-05-02T09:19:24.291Z,69.27
2023-05-02T09:20:24.275Z,69.98
2023-05-02T09:21:24.253Z,69.98
2023-05-02T09:22:24.243Z,69.37
2023-05-02T09:23:24.263Z,68.46
2023-05-02T09:24:24.246Z,68.63
2023-05-02T09:25:24.212Z,67.62
2023-05-02T09:26:24.222Z,67.99
2023-05-02T09:27:24.207Z,67.25
2023-05-02T09:28:24.217Z,66.61
2023-05-02T09:29:24.204Z,65.91
2023-05-02T09:30:24.189Z,66.82
2023-05-02T09:31:43.770Z,66.72
2023-05-02T09:32:26.203Z,66.61
2023-05-02T09:33:24.183Z,65.10
2023-05-02T09:34:24.183Z,64.70
2023-05-02T09:35:24.171Z,64.90
2023-05-02T09:36:24.130Z,65.88
2023-05-02T09:37:24.132Z,64.67
2023-05-02T09:38:24.149Z,66.69
2023-05-02T09:39:25.830Z,65.57
2023-05-02T09:40:25.121Z,65.47
2023-05-02T09:41:24.128Z,66.21
2023-05-02T09:42:24.109Z,65.27
2023-05-02T09:43:24.104Z,66.21
2023-05-02T09:44:24.126Z,66.99
2023-05-02T09:45:24.133Z,65.57
2023-05-02T09:46:24.135Z,66.69
2023-05-02T09:47:24.089Z,64.73
2023-05-02T09:48:24.140Z,65.14
2023-05-02T09:49:24.044Z,63.90
2023-05-02T09:50:24.034Z,64.61
2023-05-02T09:51:24.028Z,64.03
2023-05-02T09:52:24.055Z,64.64
2023-05-02T09:53:24.036Z,64.33
2023-05-02T09:54:24.015Z,65.37
2023-05-02T09:55:24.020Z,66.01
2023-05-02T09:56:25.995Z,66.14
2023-05-02T09:57:24.987Z,65.84
2023-05-02T09:58:24.049Z,67.49
2023-05-02T09:59:24.000Z,67.29
2023-05-02T10:00:24.019Z,67.39
2023-05-02T10:01:24.030Z,67.72
2023-05-02T10:02:23.951Z,69.07
2023-05-02T10:03:23.975Z,69.95
2023-05-02T10:04:24.153Z,70.79
2023-05-02T10:05:23.927Z,69.13
2023-05-02T10:06:23.965Z,70.08
2023-05-02T10:07:23.926Z,69.54
2023-05-02T10:08:23.964Z,70.62
2023-05-02T10:09:23.900Z,73.94
2023-05-02T10:10:23.927Z,74.31
2023-05-02T10:11:23.911Z,73.91
2023-05-02T10:12:23.897Z,76.38
2023-05-02T10:13:23.921Z,76.42
2023-05-02T10:14:23.873Z,76.11
2023-05-02T10:15:23.870Z,77.57
2023-05-02T10:16:23.905Z,77.64
2023-05-02T10:17:23.841Z,76.28
2023-05-02T10:18:23.860Z,75.63
2023-05-02T10:19:23.831Z,74.68
2023-05-02T10:20:23.830Z,74.82
2023-05-02T10:21:23.821Z,76.21
2023-05-02T10:22:23.804Z,74.85
2023-05-02T10:23:23.817Z,74.31
2023-05-02T10:24:23.793Z,72.65
2023-05-02T10:25:23.795Z,74.14
2023-05-02T10:26:23.775Z,73.09
2023-05-02T10:27:23.782Z,73.73
2023-05-02T10:28:23.820Z,72.38
2023-05-02T10:29:23.761Z,72.34
2023-05-02T10:30:23.753Z,71.13
2023-05-02T10:31:23.917Z,72.68
2023-05-02T10:32:23.757Z,68.13
2023-05-02T10:33:23.763Z,72.01
2023-05-02T10:34:23.729Z,69.98
2023-05-02T10:35:23.749Z,69.44
2023-05-02T10:36:23.719Z,71.57
2023-05-02T10:37:23.716Z,68.33
2023-05-02T10:38:24.739Z,69.24
2023-05-02T10:39:24.701Z,72.41
2023-05-02T10:40:23.725Z,70.96
2023-05-02T10:41:23.674Z,68.40
2023-05-02T10:42:23.725Z,65.14
2023-05-02T10:43:23.662Z,67.43
2023-05-02T10:44:23.654Z,67.43
2023-05-02T10:45:23.679Z,67.43
2023-05-02T10:46:23.736Z,64.78
2023-05-02T10:47:23.740Z,62.28
2023-05-02T10:48:23.629Z,62.76
2023-05-02T10:49:23.621Z,63.06
2023-05-02T10:50:23.634Z,60.91
2023-05-02T10:51:23.614Z,62.60
2023-05-02T10:52:23.626Z,61.66
2023-05-02T10:53:23.598Z,62.16
2023-05-02T10:54:23.588Z,60.63
2023-05-02T10:55:23.602Z,60.83
2023-05-02T10:56:23.563Z,61.16
2023-05-02T10:57:23.567Z,63.00
2023-05-02T10:58:23.688Z,62.34
2023-05-02T10:59:23.545Z,62.01
2023-05-02T11:00:23.557Z,62.58
2023-05-02T11:01:23.688Z,60.69
2023-05-02T11:02:23.695Z,61.60
2023-05-02T11:03:23.593Z,60.93
2023-05-02T11:04:23.543Z,62.04
2023-05-02T11:05:23.508Z,62.66
2023-05-02T11:06:23.505Z,64.04
2023-05-02T11:07:23.489Z,62.65
2023-05-02T11:08:23.536Z,64.43
2023-05-02T11:09:23.489Z,64.43
2023-05-02T11:10:23.472Z,65.78
2023-05-02T11:11:23.468Z,66.82
2023-05-02T11:12:23.487Z,66.58
2023-05-02T11:13:23.456Z,67.32
2023-05-02T11:14:23.442Z,66.52
2023-05-02T11:15:23.465Z,66.14
2023-05-02T11:16:23.477Z,66.47
2023-05-02T11:17:23.601Z,67.52
2023-05-02T11:18:23.430Z,68.16
2023-05-02T11:19:23.406Z,69.78
2023-05-02T11:20:23.433Z,67.96
2023-05-02T11:21:23.401Z,67.45
2023-05-02T11:22:23.407Z,67.45
2023-05-02T11:23:23.396Z,67.25
2023-05-02T11:24:23.379Z,68.36
2023-05-02T11:25:23.376Z,69.54
2023-05-02T11:26:23.351Z,68.84
2023-05-02T11:27:23.355Z,69.95
2023-05-02T11:28:23.371Z,68.73
2023-05-02T11:29:23.348Z,69.74
2023-05-02T11:30:23.365Z,69.65
2023-05-02T11:31:23.346Z,69.04
2023-05-02T11:32:23.487Z,70.49
2023-05-02T11:33:23.442Z,70.18
2023-05-02T11:34:23.305Z,70.42
2023-05-02T11:35:23.290Z,72.28
2023-05-02T11:36:23.280Z,71.88
2023-05-02T11:37:23.293Z,72.01
2023-05-02T11:38:23.300Z,72.65
2023-05-02T11:39:23.317Z,73.06
2023-05-02T11:40:23.269Z,73.29
2023-05-02T11:41:23.278Z,72.58
2023-05-02T11:42:23.244Z,74.21
2023-05-02T11:43:23.249Z,72.89
2023-05-02T11:44:23.251Z,73.19
2023-05-02T11:45:23.233Z,72.25
2023-05-02T11:46:23.318Z,72.41
2023-05-02T11:47:23.220Z,72.08
2023-05-02T11:48:23.241Z,71.57
2023-05-02T11:49:23.214Z,70.42
2023-05-02T11:50:23.190Z,70.59
2023-05-02T11:51:23.212Z,70.29
2023-05-02T11:52:23.186Z,69.01
2023-05-02T11:53:23.215Z,69.14
2023-05-02T11:54:23.177Z,69.81
2023-05-02T11:55:23.195Z,68.60
2023-05-02T11:56:23.159Z,69.31
2023-05-02T11:57:23.155Z,69.04
2023-05-02T11:58:23.167Z,69.74
2023-05-02T11:59:23.137Z,70.45
2023-05-02T12:00:23.133Z,69.54
2023-05-02T12:01:23.134Z,69.48
2023-05-02T12:02:23.190Z,69.24
2023-05-02T12:03:23.265Z,69.14
2023-05-02T12:04:23.107Z,69.65
2023-05-02T12:05:23.139Z,70.05
2023-05-02T12:06:23.188Z,69.54
2023-05-02T12:07:23.082Z,70.62
2023-05-02T12:08:23.091Z,68.94
2023-05-02T12:09:23.060Z,70.39
2023-05-02T12:10:23.055Z,69.27
2023-05-02T12:11:23.078Z,70.12
2023-05-02T12:12:23.042Z,70.72
2023-05-02T12:13:23.053Z,70.32
2023-05-02T12:14:23.034Z,70.45
2023-05-02T12:15:23.022Z,68.60
2023-05-02T12:16:23.045Z,68.23
2023-05-02T12:17:23.061Z,69.10
2023-05-02T12:18:23.049Z,68.66
2023-05-02T12:19:23.008Z,69.00
2023-05-02T12:20:23.011Z,70.12
2023-05-02T12:21:23.000Z,70.39
2023-05-02T12:22:22.971Z,70.62
2023-05-02T12:23:22.990Z,70.18
2023-05-02T12:24:22.972Z,70.42
2023-05-02T12:25:22.952Z,70.12
2023-05-02T12:26:22.949Z,70.72
2023-05-02T12:27:22.997Z,69.78
2023-05-02T12:28:22.962Z,68.36
2023-05-02T12:29:22.940Z,69.44
2023-05-02T12:30:22.913Z,68.13
2023-05-02T12:31:23.035Z,67.69
2023-05-02T12:32:22.911Z,68.23
2023-05-02T12:33:22.919Z,64.54
2023-05-02T12:34:22.918Z,64.54
2023-05-02T12:35:22.946Z,61.44
2023-05-02T12:36:22.894Z,59.25
2023-05-02T12:37:22.881Z,57.86
2023-05-02T12:38:22.990Z,56.88
2023-05-02T12:39:22.857Z,55.88
2023-05-02T12:40:22.888Z,55.55
2023-05-02T12:41:22.832Z,55.83
2023-05-02T12:42:23.838Z,54.13
2023-05-02T12:43:22.856Z,57.81
2023-05-02T12:44:22.822Z,60.15
2023-05-02T12:45:22.824Z,59.47
2023-05-02T12:46:22.874Z,60.88
2023-05-02T12:47:22.960Z,59.57
2023-05-02T12:48:22.836Z,59.17
2023-05-02T12:49:22.795Z,59.24
2023-05-02T12:50:22.772Z,58.36
2023-05-02T12:51:22.776Z,58.89
2023-05-02T12:52:22.780Z,59.70